createdAt,value
2023-03-10T00:00:17.324Z,92.78
2023-03-10T00:03:03.042Z,92.33
2023-03-10T00:05:48.415Z,92.80
2023-03-10T00:08:33.764Z,93.65
2023-03-10T00:11:19.439Z,93.59
2023-03-10T00:14:04.700Z,93.71
2023-03-10T00:16:50.250Z,93.15
2023-03-10T00:19:35.477Z,94.19
2023-03-10T00:22:21.079Z,94.59
2023-03-10T00:25:07.710Z,94.00
2023-03-10T00:27:52.772Z,93.44
2023-03-10T00:30:38.295Z,93.73
2023-03-10T00:33:23.238Z,93.47
2023-03-10T00:36:21.365Z,93.93
2023-03-10T00:39:08.923Z,94.30
2023-03-10T00:41:55.168Z,94.45
2023-03-10T00:44:41.773Z,94.68
2023-03-10T00:47:27.205Z,95.04
2023-03-10T00:50:13.409Z,93.92
2023-03-10T00:53:00.929Z,93.75
2023-03-10T00:55:58.141Z,94.46
2023-03-10T00:58:43.698Z,94.89
2023-03-10T01:01:37.417Z,94.14
2023-03-10T01:04:22.624Z,94.34
2023-03-10T01:07:07.783Z,94.79
2023-03-10T01:09:53.001Z,94.80
2023-03-10T01:12:38.860Z,94.83
2023-03-10T01:15:24.479Z,95.65
2023-03-10T01:18:09.647Z,95.70
2023-03-10T01:20:54.866Z,96.55
2023-03-10T01:23:40.130Z,95.35
2023-03-10T01:26:25.460Z,95.75
2023-03-10T01:29:10.731Z,96.80
2023-03-10T01:31:56.117Z,98.02
2023-03-10T01:34:41.641Z,98.20
2023-03-10T01:37:27.054Z,98.51
2023-03-10T01:40:18.563Z,98.71
2023-03-10T01:43:18.999Z,99.04
2023-03-10T01:46:04.237Z,97.63
2023-03-10T01:48:51.395Z,97.49
2023-03-10T01:51:38.840Z,97.72
2023-03-10T01:54:33.849Z,98.04
2023-03-10T01:57:22.049Z,98.68
2023-03-10T02:00:16.079Z,99.83
2023-03-10T02:03:07.714Z,99.34
2023-03-10T02:06:03.724Z,99.04
2023-03-10T02:08:57.890Z,98.26
2023-03-10T02:11:45.707Z,98.21
2023-03-10T02:14:32.447Z,98.12
2023-03-10T02:17:21.178Z,98.80
2023-03-10T02:20:21.608Z,98.79
2023-03-10T02:23:10.052Z,98.93
2023-03-10T02:26:04.182Z,99.18
2023-03-10T02:28:50.875Z,100.00
2023-03-10T02:31:36.497Z,100.00
2023-03-10T02:34:23.473Z,100.00
2023-03-10T02:37:22.064Z,99.43
2023-03-10T02:40:33.632Z,99.49
2023-03-10T02:43:24.782Z,100.00
2023-03-10T02:46:15.170Z,100.00
2023-03-10T02:49:06.069Z,100.00
2023-03-10T02:51:59.224Z,100.00
2023-03-10T02:54:45.110Z,100.00
2023-03-10T02:57:30.499Z,100.00
2023-03-10T03:00:16.205Z,100.00
2023-03-10T03:03:01.683Z,100.00
2023-03-10T03:05:47.894Z,100.00
2023-03-10T03:08:33.382Z,100.00
2023-03-10T03:11:20.496Z,100.00
2023-03-10T03:14:06.211Z,100.00
2023-03-10T03:16:51.521Z,100.00
2023-03-10T03:19:37.267Z,100.00
2023-03-10T03:22:22.892Z,100.00
2023-03-10T03:25:09.940Z,100.00
2023-03-10T03:27:55.205Z,100.00
2023-03-10T03:30:41.010Z,100.00
2023-03-10T03:33:26.497Z,100.00
2023-03-10T03:36:13.040Z,100.00
2023-03-10T03:38:58.295Z,100.00
2023-03-10T03:41:46.552Z,100.00
2023-03-10T03:44:32.072Z,100.00
2023-03-10T03:47:18.393Z,100.00
2023-03-10T03:50:04.439Z,100.00
2023-03-10T03:52:50.037Z,100.00
2023-03-10T03:55:37.868Z,100.00
2023-03-10T03:58:25.332Z,100.00
2023-03-10T04:01:10.769Z,100.00
2023-03-10T04:04:01.428Z,100.00
2023-03-10T04:06:46.657Z,100.00
2023-03-10T04:09:32.257Z,100.00
2023-03-10T04:12:17.852Z,100.00
2023-03-10T04:15:08.207Z,100.00
2023-03-10T04:17:53.929Z,100.00
2023-03-10T04:20:39.089Z,100.00
2023-03-10T04:23:24.563Z,100.00
2023-03-10T04:26:10.812Z,100.00
2023-03-10T04:28:59.079Z,100.00
2023-03-10T04:31:59.107Z,100.00
2023-03-10T04:34:50.815Z,100.00
2023-03-10T04:37:36.495Z,100.00
2023-03-10T04:40:21.827Z,100.00
2023-03-10T04:43:07.341Z,100.00
2023-03-10T04:45:53.246Z,100.00
2023-03-10T04:48:39.688Z,100.00
2023-03-10T04:51:24.823Z,100.00
2023-03-10T04:54:12.304Z,100.00
2023-03-10T04:56:58.644Z,100.00
2023-03-10T04:59:44.891Z,100.00
2023-03-10T05:02:32.357Z,100.00
2023-03-10T05:05:20.127Z,100.00
2023-03-10T05:08:07.262Z,100.00
2023-03-10T05:10:52.769Z,100.00
2023-03-10T05:13:39.278Z,100.00
2023-03-10T05:16:25.240Z,100.00
2023-03-10T05:19:11.866Z,100.00
2023-03-10T05:21:57.375Z,100.00
2023-03-10T05:24:43.691Z,100.00
2023-03-10T05:27:29.573Z,100.00
2023-03-10T05:30:16.032Z,100.00
2023-03-10T05:33:04.072Z,100.00
2023-03-10T05:35:49.955Z,100.00
2023-03-10T05:38:36.670Z,100.00
2023-03-10T05:41:23.744Z,100.00
2023-03-10T05:44:13.254Z,100.00
2023-03-10T05:46:59.308Z,100.00
2023-03-10T05:49:45.113Z,100.00
2023-03-10T05:52:30.330Z,100.00
2023-03-10T05:55:18.395Z,100.00
2023-03-10T05:58:04.049Z,100.00
2023-03-10T06:00:49.777Z,100.00
2023-03-10T06:03:35.427Z,100.00
2023-03-10T06:06:20.928Z,100.00
2023-03-10T06:09:07.112Z,100.00
2023-03-10T06:11:52.533Z,100.00
2023-03-10T06:14:38.593Z,100.00
2023-03-10T06:17:23.798Z,100.00
2023-03-10T06:20:09.992Z,100.00
2023-03-10T06:22:55.410Z,100.00
2023-03-10T06:25:41.239Z,100.00
2023-03-10T06:28:32.710Z,100.00
2023-03-10T06:31:21.665Z,100.00
2023-03-10T06:34:07.802Z,100.00
2023-03-10T06:36:55.273Z,100.00
2023-03-10T06:39:41.143Z,100.00
2023-03-10T06:42:26.579Z,100.00
2023-03-10T06:45:16.746Z,100.00
2023-03-10T06:48:01.935Z,100.00
2023-03-10T06:50:54.390Z,100.00
2023-03-10T06:53:40.195Z,100.00
2023-03-10T06:56:25.496Z,100.00
2023-03-10T06:59:10.631Z,100.00
2023-03-10T07:01:55.942Z,100.00
2023-03-10T07:04:41.585Z,100.00
2023-03-10T07:07:26.825Z,100.00
2023-03-10T07:10:12.238Z,100.00
2023-03-10T07:12:58.885Z,100.00
2023-03-10T07:15:45.733Z,100.00
2023-03-10T07:18:31.253Z,100.00
2023-03-10T07:21:19.761Z,100.00
2023-03-10T07:24:05.977Z,100.00
2023-03-10T07:26:51.485Z,100.00
2023-03-10T07:29:36.691Z,100.00
2023-03-10T07:32:22.081Z,100.00
2023-03-10T07:35:08.121Z,100.00
2023-03-10T07:37:53.647Z,100.00
2023-03-10T07:40:42.153Z,100.00
2023-03-10T07:43:27.592Z,100.00
2023-03-10T07:46:14.890Z,100.00
2023-03-10T07:49:04.064Z,100.00
2023-03-10T07:51:49.457Z,100.00
2023-03-10T07:54:35.065Z,100.00
2023-03-10T07:57:20.558Z,100.00
2023-03-10T08:00:07.116Z,100.00
2023-03-10T08:02:56.926Z,100.00
2023-03-10T08:05:42.722Z,100.00
2023-03-10T08:08:29.784Z,100.00
2023-03-10T08:11:15.341Z,100.00
2023-03-10T08:14:00.815Z,100.00
2023-03-10T08:16:45.879Z,100.00
2023-03-10T08:19:31.118Z,100.00
2023-03-10T08:22:16.945Z,100.00
2023-03-10T08:25:02.132Z,100.00
2023-03-10T08:27:50.433Z,100.00
2023-03-10T08:30:35.559Z,100.00
2023-03-10T08:33:21.955Z,100.00
2023-03-10T08:36:11.121Z,100.00
2023-03-10T08:38:59.000Z,100.00
2023-03-10T08:41:49.002Z,100.00
2023-03-10T08:44:34.701Z,100.00
2023-03-10T08:47:23.480Z,100.00
2023-03-10T08:50:09.434Z,100.00
2023-03-10T08:52:54.937Z,100.00
2023-03-10T08:55:40.159Z,100.00
2023-03-10T08:58:25.857Z,100.00
2023-03-10T09:01:16.616Z,100.00
2023-03-10T09:04:04.019Z,100.00
2023-03-10T09:06:49.261Z,100.00
2023-03-10T09:09:38.113Z,98.90
2023-03-10T09:12:23.374Z,99.65
2023-03-10T09:15:09.053Z,98.00
2023-03-10T09:17:55.562Z,97.77
2023-03-10T09:20:42.244Z,99.37
2023-03-10T09:23:28.366Z,100.00
2023-03-10T09:26:14.573Z,100.00
2023-03-10T09:29:00.174Z,100.00
2023-03-10T09:31:47.671Z,100.00
2023-03-10T09:34:33.242Z,99.77
2023-03-10T09:37:18.492Z,99.65
2023-03-10T09:40:06.393Z,99.13
2023-03-10T09:43:03.818Z,98.21
2023-03-10T09:45:57.603Z,99.94
2023-03-10T09:48:57.922Z,100.00
2023-03-10T09:51:47.957Z,100.00
2023-03-10T09:54:56.333Z,100.00
2023-03-10T09:57:41.560Z,99.41
2023-03-10T10:00:34.821Z,99.37
2023-03-10T10:03:42.987Z,98.97
2023-03-10T10:06:42.230Z,98.89
2023-03-10T10:09:43.225Z,97.48
2023-03-10T10:12:28.566Z,98.28
2023-03-10T10:15:17.812Z,96.16
2023-03-10T10:18:24.968Z,96.92
2023-03-10T10:21:26.026Z,93.89
2023-03-10T10:24:14.161Z,94.60
2023-03-10T10:26:59.665Z,95.94
2023-03-10T10:29:47.066Z,95.47
2023-03-10T10:32:32.292Z,93.73
2023-03-10T10:35:24.829Z,94.12
2023-03-10T10:38:10.029Z,94.76
2023-03-10T10:41:09.940Z,94.17
2023-03-10T10:43:58.748Z,94.36
2023-03-10T10:46:52.501Z,95.39
2023-03-10T10:49:38.165Z,94.91
2023-03-10T10:52:25.446Z,94.52
2023-03-10T10:55:22.369Z,95.05
2023-03-10T10:58:31.090Z,96.20
2023-03-10T11:01:17.062Z,94.62
2023-03-10T11:04:08.059Z,94.96
2023-03-10T11:07:08.671Z,95.05
2023-03-10T11:09:58.036Z,95.42
2023-03-10T11:13:02.580Z,94.57
2023-03-10T11:16:00.557Z,96.12
2023-03-10T11:18:57.804Z,96.97
2023-03-10T11:21:48.320Z,97.59
2023-03-10T11:24:45.827Z,98.61
2023-03-10T11:27:46.203Z,99.53
2023-03-10T11:30:34.415Z,100.00
2023-03-10T11:33:42.643Z,100.00
2023-03-10T11:36:55.508Z,100.00
2023-03-10T11:40:30.815Z,99.74
2023-03-10T11:43:56.868Z,100.00
2023-03-10T11:46:54.434Z,100.00
2023-03-10T11:49:43.600Z,98.11
2023-03-10T11:52:32.433Z,95.93
2023-03-10T11:55:20.885Z,97.19
2023-03-10T11:58:21.305Z,97.51
2023-03-10T12:01:11.853Z,96.31
2023-03-10T12:04:22.860Z,97.64
2023-03-10T12:07:20.557Z,97.60
2023-03-10T12:10:12.702Z,97.56
2023-03-10T12:13:02.004Z,97.64
2023-03-10T12:15:48.398Z,96.53
2023-03-10T12:18:34.219Z,96.62
2023-03-10T12:21:28.256Z,96.82
2023-03-10T12:24:43.284Z,97.75
2023-03-10T12:27:28.713Z,94.55
2023-03-10T12:30:45.861Z,93.67
2023-03-10T12:33:33.284Z,93.18
2023-03-10T12:36:22.230Z,92.09
2023-03-10T12:39:48.150Z,92.28
2023-03-10T12:42:35.217Z,91.08
2023-03-10T12:45:31.928Z,91.92
2023-03-10T12:48:20.047Z,92.68
2023-03-10T12:51:13.680Z,92.61
2023-03-10T12:54:06.542Z,93.12
2023-03-10T12:57:17.777Z,92.24
2023-03-10T13:00:13.712Z,89.37
2023-03-10T13:03:11.107Z,89.19
2023-03-10T13:05:59.562Z,87.68
2023-03-10T13:08:46.342Z,87.66
2023-03-10T13:11:37.994Z,86.89
2023-03-10T13:14:33.575Z,87.86
2023-03-10T13:17:28.526Z,87.80
2023-03-10T13:20:19.310Z,88.63
2023-03-10T13:23:04.755Z,86.80
2023-03-10T13:26:16.800Z,87.47
2023-03-10T13:29:03.668Z,87.40
2023-03-10T13:31:54.069Z,87.54
2023-03-10T13:34:39.385Z,86.03
2023-03-10T13:37:24.977Z,86.62
2023-03-10T13:40:14.988Z,87.63
2023-03-10T13:43:00.553Z,88.14
2023-03-10T13:45:45.708Z,88.14
2023-03-10T13:48:32.447Z,86.50
2023-03-10T13:51:32.453Z,86.80
2023-03-10T13:54:20.402Z,88.15
2023-03-10T13:57:31.321Z,88.92
2023-03-10T14:00:19.481Z,87.96
2023-03-10T14:03:07.910Z,88.73
2023-03-10T14:05:53.920Z,88.96
2023-03-10T14:08:39.091Z,87.32
2023-03-10T14:11:40.929Z,88.28
2023-03-10T14:14:38.595Z,88.83
2023-03-10T14:17:34.983Z,89.55
2023-03-10T14:20:39.016Z,90.51
2023-03-10T14:23:26.997Z,90.57
2023-03-10T14:26:16.753Z,91.19
2023-03-10T14:29:03.710Z,92.23
2023-03-10T14:31:52.384Z,92.40
2023-03-10T14:34:37.867Z,90.57
2023-03-10T14:37:23.915Z,88.55
2023-03-10T14:40:10.782Z,88.36
2023-03-10T14:43:00.979Z,87.79
2023-03-10T14:45:47.791Z,88.48
2023-03-10T14:48:35.853Z,88.97
2023-03-10T14:51:34.363Z,89.54
2023-03-10T14:54:25.840Z,89.38
2023-03-10T14:57:13.525Z,90.57
2023-03-10T14:59:58.889Z,89.36
2023-03-10T15:02:45.570Z,88.95
2023-03-10T15:05:46.938Z,89.06
2023-03-10T15:08:33.269Z,89.47
2023-03-10T15:11:30.248Z,89.72
2023-03-10T15:14:21.138Z,89.01
2023-03-10T15:17:06.238Z,89.33
2023-03-10T15:19:51.783Z,89.38
2023-03-10T15:22:37.122Z,90.88
2023-03-10T15:25:22.571Z,91.69
2023-03-10T15:28:07.810Z,91.79
2023-03-10T15:30:54.645Z,92.46
2023-03-10T15:33:40.144Z,92.59
2023-03-10T15:36:25.467Z,93.22
2023-03-10T15:39:14.262Z,93.97
2023-03-10T15:42:04.380Z,94.07
2023-03-10T15:44:49.478Z,94.08
2023-03-10T15:47:34.964Z,94.00
2023-03-10T15:50:21.142Z,92.57
2023-03-10T15:53:06.268Z,93.28
2023-03-10T15:55:52.531Z,92.29
2023-03-10T15:58:37.991Z,95.56
2023-03-10T16:01:23.328Z,97.23
2023-03-10T16:04:08.849Z,97.83
2023-03-10T16:06:54.395Z,100.00
2023-03-10T16:09:39.770Z,100.00
2023-03-10T16:12:28.245Z,100.00
2023-03-10T16:15:16.939Z,100.00
2023-03-10T16:18:03.532Z,100.00
2023-03-10T16:20:56.710Z,100.00
2023-03-10T16:23:42.178Z,100.00
2023-03-10T16:26:27.797Z,100.00
2023-03-10T16:29:13.359Z,100.00
2023-03-10T16:31:58.998Z,100.00
2023-03-10T16:34:44.300Z,100.00
2023-03-10T16:37:29.942Z,100.00
2023-03-10T16:40:15.270Z,100.00
2023-03-10T16:43:00.468Z,100.00
2023-03-10T16:45:48.687Z,100.00
2023-03-10T16:48:34.700Z,100.00
2023-03-10T16:51:27.702Z,100.00
2023-03-10T16:54:16.628Z,100.00
2023-03-10T16:57:03.411Z,100.00
2023-03-10T16:59:48.948Z,100.00
2023-03-10T17:02:34.299Z,100.00
2023-03-10T17:05:19.889Z,100.00
2023-03-10T17:08:05.982Z,100.00
2023-03-10T17:10:51.390Z,100.00
2023-03-10T17:13:37.797Z,100.00
2023-03-10T17:16:28.155Z,100.00
2023-03-10T17:19:19.592Z,100.00
2023-03-10T17:22:05.034Z,100.00
2023-03-10T17:24:58.112Z,100.00
2023-03-10T17:27:43.842Z,100.00
2023-03-10T17:30:29.564Z,100.00
2023-03-10T17:33:15.005Z,100.00
2023-03-10T17:36:07.893Z,100.00
2023-03-10T17:38:58.517Z,100.00
2023-03-10T17:41:43.583Z,100.00
2023-03-10T17:44:29.117Z,100.00
2023-03-10T17:47:14.657Z,100.00
2023-03-10T17:50:02.048Z,100.00
2023-03-10T17:52:47.773Z,100.00
2023-03-10T17:55:35.383Z,100.00
2023-03-10T17:58:21.050Z,100.00
2023-03-10T18:01:14.211Z,100.00
2023-03-10T18:04:00.686Z,100.00
2023-03-10T18:06:46.232Z,100.00
2023-03-10T18:09:31.905Z,100.00
2023-03-10T18:12:17.458Z,100.00
2023-03-10T18:15:02.734Z,100.00
2023-03-10T18:17:47.885Z,100.00
2023-03-10T18:20:34.692Z,100.00
2023-03-10T18:23:23.296Z,100.00
2023-03-10T18:26:10.645Z,100.00
2023-03-10T18:28:56.583Z,100.00
2023-03-10T18:31:41.894Z,100.00
2023-03-10T18:34:27.072Z,100.00
2023-03-10T18:37:12.869Z,100.00
2023-03-10T18:39:59.326Z,100.00
2023-03-10T18:42:44.898Z,100.00
2023-03-10T18:45:30.061Z,100.00
2023-03-10T18:48:15.355Z,100.00
2023-03-10T18:51:01.046Z,100.00
2023-03-10T18:53:46.276Z,100.00
2023-03-10T18:56:31.597Z,100.00
2023-03-10T18:59:16.708Z,100.00
2023-03-10T19:02:02.084Z,100.00
2023-03-10T19:04:49.048Z,100.00
2023-03-10T19:07:36.445Z,99.67
2023-03-10T19:10:22.414Z,99.03
2023-03-10T19:13:07.931Z,97.33
2023-03-10T19:15:53.983Z,98.20
2023-03-10T19:18:40.207Z,99.29
2023-03-10T19:21:25.373Z,97.95
2023-03-10T19:24:11.104Z,97.36
2023-03-10T19:26:56.588Z,97.60
2023-03-10T19:29:41.693Z,97.50
2023-03-10T19:32:28.029Z,97.50
2023-03-10T19:35:15.069Z,97.40
2023-03-10T19:38:00.452Z,98.01
2023-03-10T19:40:47.079Z,97.20
2023-03-10T19:43:32.890Z,97.17
2023-03-10T19:46:19.087Z,97.70
2023-03-10T19:49:06.543Z,97.02
2023-03-10T19:51:52.536Z,96.19
2023-03-10T19:54:38.096Z,95.75
2023-03-10T19:57:23.782Z,96.50
2023-03-10T20:00:13.623Z,96.69
2023-03-10T20:02:59.231Z,97.24
2023-03-10T20:05:47.102Z,98.37
2023-03-10T20:08:34.053Z,97.63
2023-03-10T20:11:19.835Z,96.31
2023-03-10T20:14:05.801Z,96.47
2023-03-10T20:16:51.477Z,96.57
2023-03-10T20:19:38.886Z,94.86
2023-03-10T20:22:24.364Z,94.30
2023-03-10T20:25:12.367Z,94.83
2023-03-10T20:27:57.930Z,94.24
2023-03-10T20:30:43.480Z,95.13
2023-03-10T20:33:29.143Z,95.96
2023-03-10T20:36:15.837Z,94.74
2023-03-10T20:39:01.847Z,94.35
2023-03-10T20:41:49.169Z,94.63
2023-03-10T20:44:34.839Z,95.07
2023-03-10T20:47:20.123Z,95.18
2023-03-10T20:50:07.475Z,95.72
2023-03-10T20:52:53.552Z,96.00
2023-03-10T20:55:41.896Z,96.20
2023-03-10T20:58:27.575Z,96.98
2023-03-10T21:01:18.545Z,96.28
2023-03-10T21:04:04.612Z,96.49
2023-03-10T21:06:49.663Z,97.29
2023-03-10T21:09:35.186Z,97.57
2023-03-10T21:12:21.348Z,97.55
2023-03-10T21:15:08.072Z,97.66
2023-03-10T21:17:53.187Z,97.02
2023-03-10T21:20:38.655Z,97.47
2023-03-10T21:23:24.134Z,97.31
2023-03-10T21:26:15.513Z,96.11
2023-03-10T21:29:00.883Z,96.84
2023-03-10T21:31:46.092Z,97.08
2023-03-10T21:34:31.776Z,97.73
2023-03-10T21:37:17.042Z,98.06
2023-03-10T21:40:05.140Z,97.43
2023-03-10T21:42:50.395Z,97.16
2023-03-10T21:45:37.318Z,96.39
2023-03-10T21:48:22.609Z,97.18
2023-03-10T21:51:09.656Z,96.95
2023-03-10T21:53:55.328Z,96.93
2023-03-10T21:56:40.893Z,96.42
2023-03-10T21:59:25.899Z,96.29
2023-03-10T22:02:24.287Z,96.30
2023-03-10T22:05:13.646Z,95.86
2023-03-10T22:07:59.418Z,96.10
2023-03-10T22:10:45.488Z,95.96
2023-03-10T22:13:30.771Z,95.42
2023-03-10T22:16:17.037Z,94.48
2023-03-10T22:19:02.240Z,94.69
2023-03-10T22:21:47.305Z,95.97
2023-03-10T22:24:33.178Z,95.12
2023-03-10T22:27:18.557Z,95.30
2023-03-10T22:30:04.469Z,95.58
2023-03-10T22:32:50.077Z,95.94
2023-03-10T22:35:36.010Z,95.19
2023-03-10T22:38:21.531Z,94.81
2023-03-10T22:41:11.104Z,96.12
2023-03-10T22:43:56.547Z,95.97
2023-03-10T22:46:46.454Z,95.02
2023-03-10T22:49:32.260Z,95.91
2023-03-10T22:52:17.579Z,97.81
2023-03-10T22:55:03.068Z,99.25
2023-03-10T22:57:48.335Z,100.00
2023-03-10T23:00:34.424Z,100.00
2023-03-10T23:03:19.755Z,100.00
2023-03-10T23:06:05.968Z,100.00
2023-03-10T23:08:51.896Z,100.00
2023-03-10T23:11:36.890Z,100.00
2023-03-10T23:14:22.444Z,100.00
2023-03-10T23:17:08.283Z,100.00
2023-03-10T23:19:55.935Z,100.00
2023-03-10T23:22:42.315Z,100.00
2023-03-10T23:25:27.564Z,100.00
2023-03-10T23:28:13.559Z,100.00
2023-03-10T23:31:00.334Z,100.00
2023-03-10T23:33:45.636Z,100.00
2023-03-10T23:36:32.295Z,100.00
2023-03-10T23:39:17.648Z,100.00
2023-03-10T23:42:02.965Z,100.00
2023-03-10T23:44:49.823Z,100.00
2023-03-10T23:47:35.476Z,100.00
2023-03-10T23:50:22.487Z,100.00
2023-03-10T23:53:09.396Z,100.00
2023-03-10T23:55:58.655Z,100.00
2023-03-10T23:58:43.769Z,100.00
